Terminal Aerodrome Forecast
Issued by NWS Wilmington, OH

Current Version | Previous Version | Text Only | Print | Product List | Glossary On
Versions: 1 2 3 4 5 6 7 8 9 10 11 12 13 14 15 16 17 18 19 20 21 22 23 24 25 26
000 FTUS41 KILN 292059 AAB TAFCVG TAF AMD KCVG 292059Z 2921/3024 08010KT P6SM VCSH BKN035 FM300000 VRB04KT P6SM -SHRA SCT025 BKN040 FM300300 VRB04KT 3SM SHRA BR OVC012 FM300900 VRB04KT 5SM -SHRA BR OVC006 FM301300 13005KT P6SM VCSH OVC015 FM301800 16006KT P6SM BKN030=

USA.gov is the U.S. government's official web portal to all federal, state and local government web resources and services.